Oakwood, GA

10:30 AM EDT on March 30, 2015 (GMT -0400)
Basenji's Don't Bark - Oakhill Estates | | Change Station
CLOSE
Current Station
Personal Weather Station
Location: Flowery Branch, GA
Elevation: 1137 ft
Nearby Weather Stations

Elev 1137 ft 34.22 °N, 83.93 °W | Updated 8 seconds ago

Overcast
Overcast
51.3 °F
Feels Like 51.3 °F
N
1.3
Wind Variable Wind from NW
Gusts 2.5 mph

Today
High -- | Low -- °F
--% Chance of Precip.
Yesterday
High -- | Low -- °F
Precip. -- in
7:25 AM 7:54 PM
Waxing Gibbous, 80% visible
Pressure 30.14 in
Visibility 5.0 miles
Clouds Overcast 400 ft
Dew Point 51 °F
Humidity 99%
Rainfall 0.18 in
Snow Depth Not available.
UV 1 out of 12
Pollen 8.70 out of 12
Air Quality Not available.
Flu Activity Not available.
SPECI KGVL 301424Z AUTO 27009KT 5SM BR OVC004 11/09 A3014 RMK AO2 T01060094

More Conditions Fewer Conditions

Pressure 30.14 in
Visibility 5.0 miles
Clouds Overcast 400 ft
Dew Point 51 °F
Humidity 99%
Rainfall 0.18 in
Snow Depth Not available.
UV 1 out of 12
Pollen 8.70 out of 12
Air Quality Not available.
Flu Activity Not available.
SPECI KGVL 301424Z AUTO 27009KT 5SM BR OVC004 11/09 A3014 RMK AO2 T01060094

More Conditions Fewer Conditions

10-Day Weather Forecast

Almanac

Astronomy

Mar. 30, 2015 Rise Set
Actual Time
Civil Twilight
Nautical Twilight
Astronomical Twilight
Moon
Length of Visible Light
Length of Day
Tomorrow will be .
, % of the Moon is Illuminated

Today's Extremes

State Highs State Lows

Community

WunderPhotos

Upload Photos

1,809,506 photos uploaded!

WunderBlogs® & News

Nearby

Air Quality

  Air Quality AQ Index Pollutant
Not available.

Snow Depth

Station Depth Elevation

Earthquake Activity

City Distance Mag. Time & Date
Minimum magnitude displayed is 2.5.

Coastal Water Temperatures

Place Temperature

Stations

Nearby Weather Stations

Station Location Temp. Windchill Dew Point Humidity Wind Precip. Elev Updated Type